createdAt,value
2017-12-02T00:03:00.451Z,-0.90
2017-12-02T00:08:02.914Z,-1.30
2017-12-02T00:13:04.446Z,-1.30
2017-12-02T00:18:05.969Z,-1.30
2017-12-02T00:23:08.145Z,-1.30
2017-12-02T00:28:09.692Z,-1.40
2017-12-02T00:33:11.227Z,-1.40
2017-12-02T00:38:12.813Z,-1.40
2017-12-02T00:43:14.341Z,-1.50
2017-12-02T00:48:15.837Z,-1.50
2017-12-02T00:53:17.512Z,-1.70
2017-12-02T00:58:19.036Z,-1.50
2017-12-02T01:03:20.541Z,-1.30
2017-12-02T01:08:22.078Z,-1.40
2017-12-02T01:13:23.585Z,-1.50
2017-12-02T01:18:25.129Z,-1.30
2017-12-02T01:23:26.649Z,-1.30
2017-12-02T01:28:28.852Z,-1.30
2017-12-02T01:33:30.342Z,-1.40
2017-12-02T01:38:31.871Z,-1.30
2017-12-02T01:43:34.112Z,-1.30
2017-12-02T01:48:35.651Z,-1.30
2017-12-02T01:53:37.165Z,-1.30
2017-12-02T01:58:38.656Z,-1.10
2017-12-02T02:03:40.925Z,-1.20
2017-12-02T02:08:42.417Z,-1.20
2017-12-02T02:13:43.918Z,-1.10
2017-12-02T02:18:45.409Z,-1.10
2017-12-02T02:23:47.133Z,-1.10
2017-12-02T02:28:48.697Z,-1.30
2017-12-02T02:33:50.285Z,-1.30
2017-12-02T02:38:51.865Z,-1.30
2017-12-02T02:43:53.420Z,-1.20
2017-12-02T02:48:54.908Z,-1.20
2017-12-02T02:53:56.419Z,-1.30
2017-12-02T02:58:58.700Z,-1.30
2017-12-02T03:04:00.977Z,-1.40
2017-12-02T03:09:03.226Z,-1.50
2017-12-02T03:14:04.730Z,-1.50
2017-12-02T03:19:06.953Z,-1.50
2017-12-02T03:24:08.473Z,-1.60
2017-12-02T03:29:09.981Z,-1.50
2017-12-02T03:34:11.485Z,-1.60
2017-12-02T03:39:12.993Z,-1.70
2017-12-02T03:44:14.553Z,-1.70
2017-12-02T03:49:16.825Z,-1.80
2017-12-02T03:54:19.128Z,-1.80
2017-12-02T03:59:21.463Z,-1.90
2017-12-02T04:04:23.036Z,-1.90
2017-12-02T04:09:24.548Z,-2.00
2017-12-02T04:14:26.806Z,-2.00
2017-12-02T04:19:28.319Z,-2.10
2017-12-02T04:24:29.838Z,-2.00
2017-12-02T04:29:31.334Z,-1.90
2017-12-02T04:34:32.884Z,-2.10
2017-12-02T04:39:35.117Z,-2.20
2017-12-02T04:44:36.744Z,-2.30
2017-12-02T04:49:39.012Z,-2.10
2017-12-02T04:54:40.557Z,-2.10
2017-12-02T04:59:42.098Z,-2.00
2017-12-02T05:04:43.609Z,-2.10
2017-12-02T05:09:45.158Z,-2.20
2017-12-02T05:14:46.654Z,-2.20
2017-12-02T05:19:48.891Z,-2.60
2017-12-02T05:24:50.612Z,-2.60
2017-12-02T05:29:52.848Z,-2.50
2017-12-02T05:34:54.374Z,-2.60
2017-12-02T05:39:55.880Z,-2.50
2017-12-02T05:44:57.372Z,-2.40
2017-12-02T05:49:59.094Z,-2.30
2017-12-02T05:55:00.621Z,-2.40
2017-12-02T06:00:02.875Z,-2.50
2017-12-02T06:05:04.341Z,-2.50
2017-12-02T06:10:05.861Z,-2.50
2017-12-02T06:15:07.372Z,-2.40
2017-12-02T06:20:08.908Z,-2.50
2017-12-02T06:25:10.381Z,-2.30
2017-12-02T06:30:11.905Z,-2.20
2017-12-02T06:35:13.398Z,-2.20
2017-12-02T06:40:14.882Z,-2.20
2017-12-02T06:45:16.425Z,-2.10
2017-12-02T06:50:18.711Z,-2.00
2017-12-02T06:55:20.213Z,-2.10
2017-12-02T07:00:21.776Z,-1.90
2017-12-02T07:05:23.264Z,-1.80
2017-12-02T07:10:24.831Z,-2.00
2017-12-02T07:15:26.301Z,-1.90
2017-12-02T07:20:27.840Z,-1.60
2017-12-02T07:25:29.372Z,-1.50
2017-12-02T07:30:31.613Z,-1.30
2017-12-02T07:35:33.116Z,-1.40
2017-12-02T07:40:35.375Z,-1.10
2017-12-02T07:45:36.945Z,-1.10
2017-12-02T07:50:38.449Z,-0.80
2017-12-02T07:55:39.986Z,-0.70
2017-12-02T08:00:41.501Z,-0.70
2017-12-02T08:05:43.058Z,-0.60
2017-12-02T08:10:44.600Z,-0.40
2017-12-02T08:15:46.830Z,-0.30
2017-12-02T08:20:48.360Z,-0.40
2017-12-02T08:25:50.644Z,-0.30
2017-12-02T08:30:52.973Z,-0.30
2017-12-02T08:35:54.548Z,-0.40
2017-12-02T08:41:03.338Z,-0.20
2017-12-02T08:46:05.582Z,-0.10
2017-12-02T08:51:07.146Z,-0.20
2017-12-02T08:56:08.666Z,0.00
2017-12-02T09:01:10.197Z,0.10
2017-12-02T09:06:11.721Z,0.00
2017-12-02T09:11:13.260Z,0.10
2017-12-02T09:16:15.576Z,0.40
2017-12-02T09:21:17.128Z,0.30
2017-12-02T09:26:18.673Z,0.30
2017-12-02T09:31:20.917Z,0.50
2017-12-02T09:36:22.582Z,0.40
2017-12-02T09:41:24.123Z,0.60
2017-12-02T09:46:25.655Z,0.50
2017-12-02T09:51:27.970Z,0.50
2017-12-02T09:56:29.527Z,0.40
2017-12-02T10:01:31.012Z,0.40
2017-12-02T10:06:32.574Z,0.40
2017-12-02T10:11:34.138Z,0.50
2017-12-02T10:16:35.794Z,0.50
2017-12-02T10:21:37.321Z,0.70
2017-12-02T10:26:38.955Z,0.80
2017-12-02T10:31:41.141Z,0.80
2017-12-02T10:36:42.652Z,0.70
2017-12-02T10:41:44.155Z,1.00
2017-12-02T10:46:45.896Z,1.00
2017-12-02T10:51:48.107Z,1.00
2017-12-02T10:56:49.580Z,1.00
2017-12-02T11:01:51.176Z,1.10
2017-12-02T11:06:52.651Z,1.10
2017-12-02T11:11:54.220Z,1.30
2017-12-02T11:16:55.741Z,1.30
2017-12-02T11:21:57.331Z,1.40
2017-12-02T11:26:58.902Z,1.50
2017-12-02T11:32:01.276Z,1.50
2017-12-02T11:37:02.853Z,1.20
2017-12-02T11:42:04.436Z,1.30
2017-12-02T11:47:06.153Z,1.30
2017-12-02T11:52:08.429Z,1.30
2017-12-02T11:57:10.697Z,1.50
2017-12-02T12:02:12.279Z,1.40
2017-12-02T12:07:13.842Z,1.40
2017-12-02T12:12:15.357Z,1.50
2017-12-02T12:17:16.919Z,1.60
2017-12-02T12:22:18.565Z,1.50
2017-12-02T12:27:20.804Z,1.80
2017-12-02T12:32:22.398Z,1.80
2017-12-02T12:37:23.968Z,1.80
2017-12-02T12:42:25.501Z,1.60
2017-12-02T12:47:27.042Z,1.50
2017-12-02T12:52:28.588Z,1.30
2017-12-02T12:57:30.878Z,1.00
2017-12-02T13:02:33.148Z,1.00
2017-12-02T13:07:35.415Z,1.00
2017-12-02T13:12:36.924Z,0.90
2017-12-02T13:17:38.459Z,0.90
2017-12-02T13:22:39.993Z,0.90
2017-12-02T13:27:41.561Z,0.90
2017-12-02T13:32:43.070Z,1.10
2017-12-02T13:37:45.318Z,1.20
2017-12-02T13:42:46.820Z,1.10
2017-12-02T13:47:49.062Z,1.10
2017-12-02T13:52:50.586Z,1.00
2017-12-02T13:57:52.911Z,1.40
2017-12-02T14:02:54.458Z,1.30
2017-12-02T14:07:55.995Z,1.50
2017-12-02T14:12:58.256Z,1.40
2017-12-02T14:17:59.781Z,1.30
2017-12-02T14:23:01.293Z,1.50
2017-12-02T14:28:02.850Z,1.50
2017-12-02T14:33:04.316Z,1.50
2017-12-02T14:38:05.802Z,1.40
2017-12-02T14:43:07.380Z,1.40
2017-12-02T14:48:09.571Z,1.20
2017-12-02T14:53:11.829Z,1.20
2017-12-02T14:58:13.418Z,1.10
2017-12-02T15:03:15.686Z,1.00
2017-12-02T15:08:17.201Z,1.00
2017-12-02T15:13:18.721Z,1.00
2017-12-02T15:18:20.226Z,1.00
2017-12-02T15:23:21.770Z,1.00
2017-12-02T15:28:24.081Z,0.80
2017-12-02T15:33:25.649Z,0.70
2017-12-02T15:38:27.150Z,0.60
2017-12-02T15:43:28.676Z,0.50
2017-12-02T15:48:30.215Z,0.40
2017-12-02T15:53:32.668Z,0.40
2017-12-02T15:58:34.271Z,0.30
2017-12-02T16:03:35.832Z,0.20
2017-12-02T16:08:37.344Z,0.10
2017-12-02T16:13:38.887Z,0.10
2017-12-02T16:18:41.281Z,0.10
2017-12-02T16:23:43.573Z,0.20
2017-12-02T16:28:45.166Z,0.10
2017-12-02T16:33:46.694Z,0.30
2017-12-02T16:38:49.033Z,0.60
2017-12-02T16:43:50.558Z,0.50
2017-12-02T16:48:52.845Z,0.70
2017-12-02T16:53:54.476Z,0.60
2017-12-02T16:58:56.090Z,0.70
2017-12-02T17:03:57.727Z,0.80
2017-12-02T17:08:59.273Z,0.70
2017-12-02T17:14:00.776Z,0.80
2017-12-02T17:19:03.084Z,1.00
2017-12-02T17:24:04.670Z,0.90
2017-12-02T17:29:06.266Z,0.90
2017-12-02T17:34:07.792Z,0.90
2017-12-02T17:39:09.399Z,0.80
2017-12-02T17:44:10.951Z,0.60
2017-12-02T17:49:12.511Z,0.40
2017-12-02T17:54:14.149Z,0.20
2017-12-02T17:59:15.732Z,0.10
2017-12-02T18:04:17.338Z,0.00
2017-12-02T18:09:18.898Z,-0.10
2017-12-02T18:14:20.380Z,-0.10
2017-12-02T18:19:21.973Z,-0.20
2017-12-02T18:24:24.346Z,-0.30
2017-12-02T18:29:26.726Z,-0.30
2017-12-02T18:34:28.237Z,-0.40
2017-12-02T18:39:29.820Z,-0.20
2017-12-02T18:44:31.471Z,-0.20
2017-12-02T18:49:33.396Z,-0.10
2017-12-02T18:54:34.944Z,0.10
2017-12-02T18:59:36.470Z,0.20
2017-12-02T19:04:38.716Z,0.40
2017-12-02T19:09:40.311Z,0.30
2017-12-02T19:14:42.726Z,0.40
2017-12-02T19:19:44.294Z,0.30
2017-12-02T19:24:45.868Z,0.30
2017-12-02T19:29:47.380Z,0.40
2017-12-02T19:34:48.985Z,0.30
2017-12-02T19:39:50.529Z,0.30
2017-12-02T19:44:52.101Z,0.30
2017-12-02T19:49:54.400Z,0.50
2017-12-02T19:54:56.686Z,0.50
2017-12-02T19:59:59.134Z,0.50
2017-12-02T20:05:00.748Z,0.50
2017-12-02T20:10:03.059Z,0.90
2017-12-02T20:15:04.597Z,0.80
2017-12-02T20:20:06.170Z,0.80
2017-12-02T20:25:08.391Z,0.60
2017-12-02T20:30:09.994Z,0.60
2017-12-02T20:35:11.722Z,0.70
2017-12-02T20:40:13.245Z,0.80
2017-12-02T20:45:14.816Z,0.90
2017-12-02T20:50:17.124Z,0.70
2017-12-02T20:55:18.739Z,0.60
2017-12-02T21:00:20.401Z,0.50
2017-12-02T21:05:21.919Z,0.40
2017-12-02T21:10:24.342Z,0.50
2017-12-02T21:15:25.893Z,0.40
2017-12-02T21:20:27.355Z,0.50
2017-12-02T21:25:28.857Z,0.60
2017-12-02T21:30:30.516Z,0.70
2017-12-02T21:35:32.122Z,0.70
2017-12-02T21:40:34.453Z,0.90
2017-12-02T21:45:36.156Z,0.80
2017-12-02T21:50:37.799Z,0.90
2017-12-02T21:55:39.572Z,1.00
2017-12-02T22:00:41.218Z,0.80
2017-12-02T22:05:42.858Z,0.60
2017-12-02T22:10:44.470Z,0.60
2017-12-02T22:15:45.984Z,0.70
2017-12-02T22:20:47.505Z,0.60
2017-12-02T22:25:49.249Z,0.60
2017-12-02T22:30:51.679Z,0.70
2017-12-02T22:35:53.244Z,0.60
2017-12-02T22:40:54.808Z,0.70
2017-12-02T22:45:56.283Z,0.90
2017-12-02T22:50:57.903Z,1.00
2017-12-02T22:55:59.397Z,0.90
2017-12-02T23:01:00.899Z,0.80
2017-12-02T23:06:02.430Z,1.00
2017-12-02T23:11:04.747Z,0.90
2017-12-02T23:16:06.266Z,0.80
2017-12-02T23:21:08.541Z,0.80
2017-12-02T23:26:10.050Z,0.80
2017-12-02T23:31:11.546Z,0.90
2017-12-02T23:36:13.108Z,0.90
2017-12-02T23:41:14.597Z,0.90
2017-12-02T23:46:16.151Z,1.00
2017-12-02T23:51:17.757Z,1.10
2017-12-02T23:56:20.062Z,1.10
